Time;durP1;ratioP1;P1;durP2;ratioP2;P2;SDS_P1;SDS_P2;PMS_P1;PMS_P2;Temp;Humidity;BMP_temperature;BMP_pressure;BME280_temperature;BME280_humidity;BME280_pressure;Samples;Min_cycle;Max_cycle;Signal;HPM_P1;HPM_P2
2023/05/24 00:01:13;;;;;;;;;3.00;3.00;;;;;;;;4959396;28;45385;-81
2023/05/24 00:03:38;;;;;;;;;8.00;6.00;;;;;;;;4964352;28;45728;-81
2023/05/24 00:06:05;;;;;;;;;7.33;5.00;;;;;;;;4966467;28;45498;-80
2023/05/24 00:08:31;;;;;;;;;5.33;4.33;;;;;;;;4973567;28;45682;-82
2023/05/24 00:10:56;;;;;;;;;6.67;6.00;;;;;;;;4957883;28;45541;-81
2023/05/24 00:13:21;;;;;;;;;3.67;3.67;;;;;;;;4944902;28;45363;-81
2023/05/24 00:15:47;;;;;;;;;4.33;4.00;;;;;;;;4958875;28;45465;-80
2023/05/24 00:18:12;;;;;;;;;4.67;3.33;;;;;;;;4952009;28;45458;-80
2023/05/24 00:20:40;;;;;;;;;7.00;4.67;;;;;;;;4949418;28;45234;-80
2023/05/24 00:23:05;;;;;;;;;3.00;3.00;;;;;;;;4957842;28;45897;-79
2023/05/24 00:25:30;;;;;;;;;6.33;6.33;;;;;;;;4953698;28;47008;-78
2023/05/24 00:27:56;;;;;;;;;7.00;7.00;;;;;;;;4956564;28;45401;-81
2023/05/24 00:30:21;;;;;;;;;6.67;5.33;;;;;;;;4954032;28;45477;-82
2023/05/24 00:32:46;;;;;;;;;8.00;7.00;;;;;;;;4949368;28;45878;-79
2023/05/24 00:35:11;;;;;;;;;5.67;3.00;;;;;;;;4957187;28;46320;-80
2023/05/24 00:37:38;;;;;;;;;6.33;5.67;;;;;;;;4965912;28;45614;-79
2023/05/24 00:40:05;;;;;;;;;8.67;5.00;;;;;;;;4962820;28;45463;-79
2023/05/24 00:42:30;;;;;;;;;4.00;3.33;;;;;;;;4974419;28;45297;-78
2023/05/24 00:44:55;;;;;;;;;8.33;7.33;;;;;;;;4972367;28;46583;-80
2023/05/24 00:47:21;;;;;;;;;5.33;5.33;;;;;;;;4958396;28;45630;-77
2023/05/24 00:49:46;;;;;;;;;6.67;6.67;;;;;;;;4964805;28;45915;-79
2023/05/24 00:52:11;;;;;;;;;11.00;7.67;;;;;;;;4949653;28;45440;-80
2023/05/24 00:54:39;;;;;;;;;5.67;5.00;;;;;;;;4945870;28;45537;-79
2023/05/24 00:57:04;;;;;;;;;6.00;3.33;;;;;;;;4965076;28;45813;-78
2023/05/24 00:59:30;;;;;;;;;5.00;5.00;;;;;;;;4949182;28;45755;-77
2023/05/24 01:01:55;;;;;;;;;5.00;4.67;;;;;;;;4958244;28;45805;-79
2023/05/24 01:04:21;;;;;;;;;8.00;5.00;;;;;;;;4956179;28;47948;-80
2023/05/24 01:06:48;;;;;;;;;5.00;5.00;;;;;;;;4958264;28;45525;-79
2023/05/24 01:09:30;;;;;;;;;12.33;6.00;;;;;;;;4956089;28;44851;-80
2023/05/24 01:12:06;;;;;;;;;8.00;8.00;;;;;;;;4974722;28;46003;-78
2023/05/24 01:14:51;;;;;;;;;8.67;4.00;;;;;;;;4965200;28;46533;-79
2023/05/24 01:17:20;;;;;;;;;4.67;3.67;;;;;;;;4957869;28;45585;-80
2023/05/24 01:19:50;;;;;;;;;9.00;5.67;;;;;;;;4957055;28;45361;-78
2023/05/24 01:22:33;;;;;;;;;6.33;4.33;;;;;;;;4947545;28;45765;-79
2023/05/24 01:25:03;;;;;;;;;6.00;5.00;;;;;;;;4949525;28;47998;-80
2023/05/24 01:27:29;;;;;;;;;6.00;5.00;;;;;;;;4957584;28;45468;-79
2023/05/24 01:29:55;;;;;;;;;8.00;5.00;;;;;;;;4958132;28;45315;-78
2023/05/24 01:32:20;;;;;;;;;5.00;4.33;;;;;;;;4947757;28;45580;-78
2023/05/24 01:34:45;;;;;;;;;8.00;6.67;;;;;;;;4958723;28;45875;-78
2023/05/24 01:37:11;;;;;;;;;11.00;5.00;;;;;;;;4957322;28;45397;-78
2023/05/24 01:39:36;;;;;;;;;13.00;4.67;;;;;;;;4955388;28;45639;-78
2023/05/24 01:42:20;;;;;;;;;8.00;6.33;;;;;;;;4956986;28;45696;-79
2023/05/24 01:45:05;;;;;;;;;9.67;5.67;;;;;;;;4956625;28;46367;-79
2023/05/24 01:47:49;;;;;;;;;5.67;5.00;;;;;;;;4947252;28;45565;-79
2023/05/24 01:50:34;;;;;;;;;6.33;5.00;;;;;;;;4953961;28;44882;-80
2023/05/24 01:53:05;;;;;;;;;6.00;2.67;;;;;;;;4957015;28;45362;-79
2023/05/24 01:55:31;;;;;;;;;9.67;5.00;;;;;;;;4955754;28;46471;-79
2023/05/24 01:57:59;;;;;;;;;7.67;6.33;;;;;;;;4950568;28;45405;-78
2023/05/24 02:00:25;;;;;;;;;6.00;5.00;;;;;;;;4960917;28;45380;-81
2023/05/24 02:02:50;;;;;;;;;6.67;5.67;;;;;;;;4956243;28;45574;-79
2023/05/24 02:05:16;;;;;;;;;8.00;3.00;;;;;;;;4965394;28;46036;-79
2023/05/24 02:07:41;;;;;;;;;6.00;4.33;;;;;;;;4950450;28;45858;-78
2023/05/24 02:10:07;;;;;;;;;7.33;5.00;;;;;;;;4965392;28;45578;-77
2023/05/24 02:12:32;;;;;;;;;5.33;5.00;;;;;;;;4960838;28;46287;-79
2023/05/24 02:14:59;;;;;;;;;7.33;7.00;;;;;;;;4962735;28;45512;-79
2023/05/24 02:17:25;;;;;;;;;6.67;4.67;;;;;;;;4960247;28;44805;-79
2023/05/24 02:19:51;;;;;;;;;8.00;6.00;;;;;;;;4971890;28;45556;-80
2023/05/24 02:22:16;;;;;;;;;7.00;4.00;;;;;;;;4961088;28;45643;-79
2023/05/24 02:24:42;;;;;;;;;8.00;4.67;;;;;;;;4951149;28;45598;-79
2023/05/24 02:27:08;;;;;;;;;9.67;6.00;;;;;;;;4958222;28;45842;-78
2023/05/24 02:29:33;;;;;;;;;7.33;4.33;;;;;;;;4954016;28;45421;-80
2023/05/24 02:31:58;;;;;;;;;9.33;6.00;;;;;;;;4953053;28;45362;-78
2023/05/24 02:34:24;;;;;;;;;9.33;6.00;;;;;;;;4960181;28;45409;-77
2023/05/24 02:36:49;;;;;;;;;9.00;5.67;;;;;;;;4961324;28;45509;-79
2023/05/24 02:39:15;;;;;;;;;10.00;8.00;;;;;;;;4960874;28;45360;-78
2023/05/24 02:41:40;;;;;;;;;7.67;5.33;;;;;;;;4966115;28;45579;-79
2023/05/24 02:44:05;;;;;;;;;4.33;4.33;;;;;;;;4961239;28;45724;-78
2023/05/24 02:46:30;;;;;;;;;7.00;5.33;;;;;;;;4964028;28;45741;-80
2023/05/24 02:48:56;;;;;;;;;9.67;7.00;;;;;;;;4975796;28;45606;-83
2023/05/24 02:51:21;;;;;;;;;11.00;5.00;;;;;;;;4945032;28;45520;-79
2023/05/24 02:53:46;;;;;;;;;8.00;5.67;;;;;;;;4957211;28;45690;-78
2023/05/24 02:56:12;;;;;;;;;5.33;3.67;;;;;;;;4958768;28;45725;-79
2023/05/24 02:58:39;;;;;;;;;10.00;6.33;;;;;;;;4966397;28;45469;-81
2023/05/24 03:01:06;;;;;;;;;7.00;5.00;;;;;;;;4965239;28;45651;-78
2023/05/24 03:03:31;;;;;;;;;6.67;6.67;;;;;;;;4967015;28;45605;-79
2023/05/24 03:05:56;;;;;;;;;9.67;6.67;;;;;;;;4957823;28;45676;-79
2023/05/24 03:08:22;;;;;;;;;6.00;5.00;;;;;;;;4957297;28;45292;-79
2023/05/24 03:10:47;;;;;;;;;4.67;3.33;;;;;;;;4946289;28;45488;-80
2023/05/24 03:13:12;;;;;;;;;6.67;5.67;;;;;;;;4958062;28;45759;-79
2023/05/24 03:15:37;;;;;;;;;7.67;5.00;;;;;;;;4953635;28;45471;-79
2023/05/24 03:18:03;;;;;;;;;8.67;5.67;;;;;;;;4960104;28;45809;-78
2023/05/24 03:20:28;;;;;;;;;3.33;3.33;;;;;;;;4959148;28;45724;-79
2023/05/24 03:22:53;;;;;;;;;8.00;6.33;;;;;;;;4963383;28;46560;-78
2023/05/24 03:25:18;;;;;;;;;5.67;4.00;;;;;;;;4957039;28;45447;-78
2023/05/24 03:27:43;;;;;;;;;8.33;4.67;;;;;;;;4956954;28;45363;-80
2023/05/24 03:30:09;;;;;;;;;9.33;6.67;;;;;;;;4957270;28;45358;-78
2023/05/24 03:32:34;;;;;;;;;7.00;6.00;;;;;;;;4947397;28;46007;-79
2023/05/24 03:35:00;;;;;;;;;7.33;6.00;;;;;;;;4976798;28;45721;-78
2023/05/24 03:37:26;;;;;;;;;9.00;5.67;;;;;;;;4962220;28;45772;-77
2023/05/24 03:39:51;;;;;;;;;7.00;5.00;;;;;;;;4957900;28;45675;-79
2023/05/24 03:42:16;;;;;;;;;6.67;6.67;;;;;;;;4960841;28;45365;-79
2023/05/24 03:44:42;;;;;;;;;9.67;7.67;;;;;;;;4955807;28;45366;-77
2023/05/24 03:47:07;;;;;;;;;8.33;6.67;;;;;;;;4957716;28;45406;-78
2023/05/24 03:49:33;;;;;;;;;8.00;5.33;;;;;;;;4971693;28;45432;-79
2023/05/24 03:51:58;;;;;;;;;11.00;2.33;;;;;;;;4957900;28;45340;-79
2023/05/24 03:54:23;;;;;;;;;5.00;4.00;;;;;;;;4952920;28;45817;-79
2023/05/24 03:56:48;;;;;;;;;8.00;5.67;;;;;;;;4958631;28;45431;-78
2023/05/24 03:59:14;;;;;;;;;7.33;6.00;;;;;;;;4957178;28;45436;-78
2023/05/24 04:01:39;;;;;;;;;8.33;6.33;;;;;;;;4946130;28;45854;-78
2023/05/24 04:04:04;;;;;;;;;6.67;6.67;;;;;;;;4955660;28;47232;-79
2023/05/24 04:06:30;;;;;;;;;7.00;5.33;;;;;;;;4959693;28;45921;-79
2023/05/24 04:08:56;;;;;;;;;6.33;3.00;;;;;;;;4957092;28;45556;-78
2023/05/24 04:11:22;;;;;;;;;8.00;4.00;;;;;;;;4957184;28;47010;-79
2023/05/24 04:13:47;;;;;;;;;7.00;5.00;;;;;;;;4958386;28;45567;-80
2023/05/24 04:16:12;;;;;;;;;13.67;9.00;;;;;;;;4959520;28;46054;-79
2023/05/24 04:18:38;;;;;;;;;13.33;6.33;;;;;;;;4950911;28;46607;-80
2023/05/24 04:21:03;;;;;;;;;13.00;9.00;;;;;;;;4952756;28;46133;-77
2023/05/24 04:23:28;;;;;;;;;10.00;7.33;;;;;;;;4944979;28;45536;-78
2023/05/24 04:25:53;;;;;;;;;10.33;8.33;;;;;;;;4954511;28;45385;-78
2023/05/24 04:28:20;;;;;;;;;8.00;5.00;;;;;;;;4955392;28;45367;-79
2023/05/24 04:30:46;;;;;;;;;7.00;5.00;;;;;;;;4950325;28;46061;-80
2023/05/24 04:33:11;;;;;;;;;7.67;6.33;;;;;;;;4948620;28;45865;-77
2023/05/24 04:35:39;;;;;;;;;9.33;6.33;;;;;;;;4952596;28;45448;-81
2023/05/24 04:38:04;;;;;;;;;6.67;3.00;;;;;;;;4956077;28;45465;-78
2023/05/24 04:40:30;;;;;;;;;12.00;8.67;;;;;;;;4960965;28;47142;-79
2023/05/24 04:42:55;;;;;;;;;11.33;7.00;;;;;;;;4953181;28;45892;-80
2023/05/24 04:45:20;;;;;;;;;8.00;5.67;;;;;;;;4941383;28;45686;-80
2023/05/24 04:47:45;;;;;;;;;7.67;6.00;;;;;;;;4943438;28;45764;-80
2023/05/24 04:50:11;;;;;;;;;10.00;5.67;;;;;;;;4956251;28;46162;-78
2023/05/24 04:52:36;;;;;;;;;10.00;6.00;;;;;;;;4955108;28;45813;-79
2023/05/24 04:55:02;;;;;;;;;9.33;8.33;;;;;;;;4957271;28;45772;-79
2023/05/24 04:57:27;;;;;;;;;4.33;3.00;;;;;;;;4959874;28;45523;-83
2023/05/24 04:59:52;;;;;;;;;9.00;5.33;;;;;;;;4950659;28;45325;-82
2023/05/24 05:02:18;;;;;;;;;8.33;6.00;;;;;;;;4960402;28;45457;-83
2023/05/24 05:04:43;;;;;;;;;11.00;7.00;;;;;;;;4954624;28;45718;-82
2023/05/24 05:07:12;;;;;;;;;9.67;6.67;;;;;;;;4952885;28;45748;-87
2023/05/24 05:09:37;;;;;;;;;11.00;5.33;;;;;;;;4955719;28;46002;-82
2023/05/24 05:12:02;;;;;;;;;2.00;2.00;;;;;;;;4952881;28;45841;-82
2023/05/24 05:14:28;;;;;;;;;6.33;5.33;;;;;;;;4954586;28;46312;-80
2023/05/24 05:16:53;;;;;;;;;12.00;7.00;;;;;;;;4954849;28;45553;-82
2023/05/24 05:19:18;;;;;;;;;4.33;3.00;;;;;;;;4956979;28;45523;-81
2023/05/24 05:21:44;;;;;;;;;3.33;3.00;;;;;;;;4949657;28;45417;-81
2023/05/24 05:24:09;;;;;;;;;4.00;4.00;;;;;;;;4954397;28;45449;-80
2023/05/24 05:26:35;;;;;;;;;3.33;1.00;;;;;;;;4945973;28;45634;-80
2023/05/24 05:29:00;;;;;;;;;7.00;5.33;;;;;;;;4950065;28;46517;-80
2023/05/24 05:31:25;;;;;;;;;5.00;4.33;;;;;;;;4954209;28;45892;-81
2023/05/24 05:33:51;;;;;;;;;7.00;4.33;;;;;;;;4952130;28;45706;-82
2023/05/24 05:36:17;;;;;;;;;7.00;5.00;;;;;;;;4952438;28;45828;-79
2023/05/24 05:38:42;;;;;;;;;9.33;6.33;;;;;;;;4947078;28;45806;-81
2023/05/24 05:41:07;;;;;;;;;5.00;3.00;;;;;;;;4955838;28;45951;-81
2023/05/24 05:43:33;;;;;;;;;10.00;6.00;;;;;;;;4955643;28;45469;-79
2023/05/24 05:45:59;;;;;;;;;7.00;5.00;;;;;;;;4955828;28;45789;-80
2023/05/24 05:48:24;;;;;;;;;4.00;4.00;;;;;;;;4954954;28;46313;-81
2023/05/24 05:50:50;;;;;;;;;3.67;0.33;;;;;;;;4957786;28;45329;-80
2023/05/24 05:53:15;;;;;;;;;3.67;3.00;;;;;;;;4952431;28;45608;-81
2023/05/24 05:55:40;;;;;;;;;8.67;6.00;;;;;;;;4948582;28;45453;-80
2023/05/24 05:58:05;;;;;;;;;8.33;6.33;;;;;;;;4948751;28;45642;-80
2023/05/24 06:00:31;;;;;;;;;6.33;5.00;;;;;;;;4945458;28;45337;-80
2023/05/24 06:02:56;;;;;;;;;3.00;3.00;;;;;;;;4962455;28;45897;-82
2023/05/24 06:05:21;;;;;;;;;7.67;5.00;;;;;;;;4950062;28;45737;-81
2023/05/24 06:07:47;;;;;;;;;6.33;5.00;;;;;;;;4949502;28;45511;-78
2023/05/24 06:10:12;;;;;;;;;9.67;4.67;;;;;;;;4957852;28;45665;-80
2023/05/24 06:12:39;;;;;;;;;10.33;4.67;;;;;;;;4952796;28;45960;-80
2023/05/24 06:15:05;;;;;;;;;7.00;5.33;;;;;;;;4960023;28;45695;-78
2023/05/24 06:17:31;;;;;;;;;6.67;3.00;;;;;;;;4949460;28;46407;-78
2023/05/24 06:19:56;;;;;;;;;5.33;3.67;;;;;;;;4950111;28;45874;-79
2023/05/24 06:22:21;;;;;;;;;6.33;5.67;;;;;;;;4952223;28;45891;-80
2023/05/24 06:24:48;;;;;;;;;4.00;4.00;;;;;;;;4951202;28;45702;-81
2023/05/24 06:27:13;;;;;;;;;6.67;5.00;;;;;;;;4948098;28;46018;-80
2023/05/24 06:29:39;;;;;;;;;4.67;4.67;;;;;;;;4947657;28;45357;-80
2023/05/24 06:32:04;;;;;;;;;7.33;5.00;;;;;;;;4949932;28;45676;-81
2023/05/24 06:34:29;;;;;;;;;9.33;8.00;;;;;;;;4959133;28;46202;-78
2023/05/24 06:36:55;;;;;;;;;6.00;4.00;;;;;;;;4951699;28;45538;-80
2023/05/24 06:39:20;;;;;;;;;8.00;6.33;;;;;;;;4943912;28;45673;-80
2023/05/24 06:41:45;;;;;;;;;7.67;7.33;;;;;;;;4953674;28;45437;-79
2023/05/24 06:44:11;;;;;;;;;9.33;4.67;;;;;;;;4949681;28;45911;-80
2023/05/24 06:46:36;;;;;;;;;4.00;3.50;;;;;;;;4948342;28;46115;-79
2023/05/24 06:49:02;;;;;;;;;6.00;4.33;;;;;;;;4965242;28;45805;-79
2023/05/24 06:51:27;;;;;;;;;6.33;4.00;;;;;;;;4954231;28;45523;-83
2023/05/24 06:53:52;;;;;;;;;8.33;6.00;;;;;;;;4952711;28;45835;-80
2023/05/24 06:56:18;;;;;;;;;11.00;6.00;;;;;;;;4948468;28;46147;-80
2023/05/24 06:58:43;;;;;;;;;9.67;6.00;;;;;;;;4939439;28;45539;-80
2023/05/24 07:01:09;;;;;;;;;2.67;2.33;;;;;;;;4956388;28;45517;-80
2023/05/24 07:03:34;;;;;;;;;7.67;7.33;;;;;;;;4939698;28;46001;-80
2023/05/24 07:05:59;;;;;;;;;5.00;5.00;;;;;;;;4959438;28;45606;-81
2023/05/24 07:08:25;;;;;;;;;2.00;2.00;;;;;;;;4956457;28;45886;-83
2023/05/24 07:10:50;;;;;;;;;5.50;3.00;;;;;;;;4954965;28;45429;-81
2023/05/24 07:13:16;;;;;;;;;3.25;3.25;;;;;;;;4945339;28;45618;-80
2023/05/24 07:15:41;;;;;;;;;4.25;3.00;;;;;;;;4946979;28;46772;-81
2023/05/24 07:18:06;;;;;;;;;3.00;3.00;;;;;;;;4945273;28;45668;-82
2023/05/24 07:20:32;;;;;;;;;5.00;4.00;;;;;;;;4950121;28;45472;-80
2023/05/24 07:22:58;;;;;;;;;4.75;3.50;;;;;;;;4953713;28;45460;-79
2023/05/24 07:25:23;;;;;;;;;8.25;4.00;;;;;;;;4949638;28;46229;-82
2023/05/24 07:27:49;;;;;;;;;5.00;2.00;;;;;;;;4958046;28;45570;-79
2023/05/24 07:30:14;;;;;;;;;4.25;3.50;;;;;;;;4952970;28;45694;-79
2023/05/24 07:32:40;;;;;;;;;5.50;3.75;;;;;;;;4950056;28;45368;-80
2023/05/24 07:35:05;;;;;;;;;1.25;0.00;;;;;;;;4959309;28;45807;-80
2023/05/24 07:37:30;;;;;;;;;4.00;2.00;;;;;;;;4957747;28;45517;-80
2023/05/24 07:39:56;;;;;;;;;4.00;3.25;;;;;;;;4956081;28;45434;-79
2023/05/24 07:42:21;;;;;;;;;8.00;6.00;;;;;;;;4943340;28;45660;-81
2023/05/24 07:44:46;;;;;;;;;7.50;5.75;;;;;;;;4948496;28;48323;-82
2023/05/24 07:47:11;;;;;;;;;5.75;3.00;;;;;;;;4958535;28;45302;-84
2023/05/24 07:49:37;;;;;;;;;5.50;4.25;;;;;;;;4957317;28;45524;-82
2023/05/24 07:52:03;;;;;;;;;6.50;5.25;;;;;;;;4954897;28;45519;-79
2023/05/24 07:54:28;;;;;;;;;5.25;4.75;;;;;;;;4953950;28;46157;-83
2023/05/24 07:56:53;;;;;;;;;5.75;3.50;;;;;;;;4958990;28;45419;-84
2023/05/24 07:59:19;;;;;;;;;5.25;3.00;;;;;;;;4959165;28;45539;-87
2023/05/24 08:01:44;;;;;;;;;4.00;3.25;;;;;;;;4959114;28;46404;-81
2023/05/24 08:04:10;;;;;;;;;6.25;4.50;;;;;;;;4962475;28;45932;-81
2023/05/24 08:06:36;;;;;;;;;5.25;3.50;;;;;;;;4958885;28;45943;-84
2023/05/24 08:09:04;;;;;;;;;2.50;2.50;;;;;;;;4970362;28;45420;-83
2023/05/24 08:11:29;;;;;;;;;5.00;3.00;;;;;;;;4957195;28;45785;-79
2023/05/24 08:13:54;;;;;;;;;4.25;3.00;;;;;;;;4954714;28;47413;-83
2023/05/24 08:16:20;;;;;;;;;1.50;0.00;;;;;;;;4947622;28;45440;-80
2023/05/24 08:18:45;;;;;;;;;4.25;4.25;;;;;;;;4947823;28;45806;-81
2023/05/24 08:21:10;;;;;;;;;5.00;3.00;;;;;;;;4943290;28;45446;-78
2023/05/24 08:23:36;;;;;;;;;3.50;2.75;;;;;;;;4945342;28;45390;-79
2023/05/24 08:26:01;;;;;;;;;8.00;3.75;;;;;;;;4942624;28;45520;-80
2023/05/24 08:28:28;;;;;;;;;3.50;3.50;;;;;;;;4948009;28;45401;-81
2023/05/24 08:30:53;;;;;;;;;5.00;3.50;;;;;;;;4941718;28;45680;-80
2023/05/24 08:33:18;;;;;;;;;0.00;0.00;;;;;;;;4955878;28;46723;-80
2023/05/24 08:35:44;;;;;;;;;3.00;1.50;;;;;;;;4953688;28;45563;-81
2023/05/24 08:38:09;;;;;;;;;3.00;3.00;;;;;;;;4961330;28;45740;-84
2023/05/24 08:40:34;;;;;;;;;9.25;4.75;;;;;;;;4956165;28;45940;-80
2023/05/24 08:43:00;;;;;;;;;2.50;2.50;;;;;;;;4956497;28;45734;-84
2023/05/24 08:45:28;;;;;;;;;4.25;3.75;;;;;;;;4950180;28;46034;-82
2023/05/24 08:47:54;;;;;;;;;9.00;7.00;;;;;;;;4953232;28;45969;-84
2023/05/24 08:50:20;;;;;;;;;2.25;2.00;;;;;;;;4952178;28;45699;-82
2023/05/24 08:52:45;;;;;;;;;2.00;2.00;;;;;;;;4945892;28;45420;-81
2023/05/24 08:55:11;;;;;;;;;2.25;2.00;;;;;;;;4952904;28;45582;-80
2023/05/24 08:57:40;;;;;;;;;2.50;2.50;;;;;;;;4958551;28;45739;-81
2023/05/24 09:00:10;;;;;;;;;3.75;2.50;;;;;;;;4946200;28;45416;-81
2023/05/24 09:02:37;;;;;;;;;3.00;2.50;;;;;;;;4947806;28;47394;-81
2023/05/24 09:05:03;;;;;;;;;5.00;1.50;;;;;;;;4942341;28;45610;-81
2023/05/24 09:07:28;;;;;;;;;2.00;2.00;;;;;;;;4949197;28;45528;-81
2023/05/24 09:09:59;;;;;;;;;2.75;1.00;;;;;;;;4948820;28;45969;-81
2023/05/24 09:12:26;;;;;;;;;3.25;2.25;;;;;;;;4950090;28;45941;-82
2023/05/24 09:14:52;;;;;;;;;1.75;1.75;;;;;;;;4951462;28;45751;-82
2023/05/24 09:17:18;;;;;;;;;0.75;0.75;;;;;;;;4954271;28;45738;-82
2023/05/24 09:19:44;;;;;;;;;0.25;0.00;;;;;;;;4952156;28;46189;-82
2023/05/24 09:22:11;;;;;;;;;2.00;1.00;;;;;;;;4948369;28;45818;-81
2023/05/24 09:24:40;;;;;;;;;5.50;1.50;;;;;;;;4952572;28;45851;-79
2023/05/24 09:27:06;;;;;;;;;1.00;1.00;;;;;;;;4949473;28;45705;-81
2023/05/24 09:29:34;;;;;;;;;2.00;0.25;;;;;;;;4954917;28;45535;-80
2023/05/24 09:32:01;;;;;;;;;1.00;1.00;;;;;;;;4956740;28;46328;-81
2023/05/24 09:34:26;;;;;;;;;3.75;1.25;;;;;;;;4956907;28;45511;-80
2023/05/24 09:36:51;;;;;;;;;3.25;1.50;;;;;;;;4958861;28;45378;-81
2023/05/24 09:39:19;;;;;;;;;1.50;1.00;;;;;;;;4954839;28;46223;-79
2023/05/24 09:41:54;;;;;;;;;2.00;1.75;;;;;;;;4957764;28;45441;-81
2023/05/24 09:44:23;;;;;;;;;2.00;2.00;;;;;;;;4954842;28;45472;-82
2023/05/24 09:46:48;;;;;;;;;3.75;1.00;;;;;;;;4964352;28;45727;-80
2023/05/24 09:49:13;;;;;;;;;3.00;2.75;;;;;;;;4967180;28;45691;-80
2023/05/24 09:51:39;;;;;;;;;1.50;0.50;;;;;;;;4945279;28;45912;-84
2023/05/24 09:54:04;;;;;;;;;5.75;3.00;;;;;;;;4939431;28;45416;-79
2023/05/24 09:56:31;;;;;;;;;3.50;1.00;;;;;;;;4951145;28;45822;-82
2023/05/24 09:58:57;;;;;;;;;1.25;1.25;;;;;;;;4948040;28;45712;-80
2023/05/24 10:01:26;;;;;;;;;4.00;1.75;;;;;;;;4942923;28;46819;-81
2023/05/24 10:03:56;;;;;;;;;2.75;2.00;;;;;;;;4950231;28;45704;-80
2023/05/24 10:06:22;;;;;;;;;1.25;1.00;;;;;;;;4955975;28;45541;-83
2023/05/24 10:08:49;;;;;;;;;0.50;0.50;;;;;;;;4961826;28;45854;-83
2023/05/24 10:11:14;;;;;;;;;3.00;1.75;;;;;;;;4932203;28;45421;-82
2023/05/24 10:13:40;;;;;;;;;3.00;1.50;;;;;;;;4937768;28;45453;-81
2023/05/24 10:16:06;;;;;;;;;2.75;2.00;;;;;;;;4934965;28;45438;-82
2023/05/24 10:18:31;;;;;;;;;3.25;2.00;;;;;;;;4948877;28;45557;-80
2023/05/24 10:20:57;;;;;;;;;3.25;2.00;;;;;;;;4948531;28;46110;-83
2023/05/24 10:23:23;;;;;;;;;3.00;2.00;;;;;;;;4950183;28;45636;-81
2023/05/24 10:26:02;;;;;;;;;3.50;3.00;;;;;;;;4940645;28;45803;-84
2023/05/24 10:28:28;;;;;;;;;3.00;2.75;;;;;;;;4953158;28;45911;-82
2023/05/24 10:31:22;;;;;;;;;2.50;2.00;;;;;;;;4946418;28;46434;-82
2023/05/24 10:33:50;;;;;;;;;1.00;1.00;;;;;;;;4943208;28;46015;-84
2023/05/24 10:36:16;;;;;;;;;4.75;2.00;;;;;;;;4950796;28;45603;-84
2023/05/24 10:38:42;;;;;;;;;1.25;1.25;;;;;;;;4948248;28;45668;-82
2023/05/24 10:41:07;;;;;;;;;2.00;2.00;;;;;;;;4947648;28;46211;-82
2023/05/24 10:43:34;;;;;;;;;5.50;2.75;;;;;;;;4950366;28;45883;-82
2023/05/24 10:46:01;;;;;;;;;5.00;4.00;;;;;;;;4950968;28;45926;-82
2023/05/24 10:48:26;;;;;;;;;1.00;1.00;;;;;;;;4943346;28;45796;-82
2023/05/24 10:50:52;;;;;;;;;2.50;1.50;;;;;;;;4941289;28;45703;-83
2023/05/24 10:53:18;;;;;;;;;3.00;3.00;;;;;;;;4958364;28;45438;-84
2023/05/24 10:55:56;;;;;;;;;4.75;1.25;;;;;;;;4943701;28;45492;-83
2023/05/24 10:58:43;;;;;;;;;1.25;1.25;;;;;;;;4944812;28;46624;-84
2023/05/24 11:01:12;;;;;;;;;2.50;1.00;;;;;;;;4945079;28;46297;-85
2023/05/24 11:03:40;;;;;;;;;1.25;1.25;;;;;;;;4950843;28;45835;-82
2023/05/24 11:06:05;;;;;;;;;2.00;1.00;;;;;;;;4940984;28;45462;-83
2023/05/24 11:08:32;;;;;;;;;1.00;1.00;;;;;;;;4956043;28;45728;-82
2023/05/24 11:11:16;;;;;;;;;2.25;2.25;;;;;;;;4952887;28;45552;-83
2023/05/24 11:13:42;;;;;;;;;3.75;2.50;;;;;;;;4965952;28;45449;-82
2023/05/24 11:16:07;;;;;;;;;2.75;1.00;;;;;;;;4983126;28;45555;-85
2023/05/24 11:18:37;;;;;;;;;2.00;2.00;;;;;;;;4953989;28;45774;-80
2023/05/24 11:21:03;;;;;;;;;4.00;2.25;;;;;;;;4948056;28;45545;-81
2023/05/24 11:23:30;;;;;;;;;1.00;1.00;;;;;;;;4949200;28;47197;-81
2023/05/24 11:25:57;;;;;;;;;3.00;2.00;;;;;;;;4951755;28;45724;-87
2023/05/24 11:28:23;;;;;;;;;1.00;1.00;;;;;;;;4953861;28;46018;-81
2023/05/24 11:30:49;;;;;;;;;3.50;2.25;;;;;;;;4960970;28;46975;-83
2023/05/24 11:33:15;;;;;;;;;3.25;2.00;;;;;;;;4948834;28;45640;-81
2023/05/24 11:35:40;;;;;;;;;1.50;1.50;;;;;;;;4938973;28;45521;-82
2023/05/24 11:38:13;;;;;;;;;3.00;3.00;;;;;;;;4948452;28;45746;-81
2023/05/24 11:40:45;;;;;;;;;3.67;3.33;;;;;;;;4946660;28;46232;-82
2023/05/24 11:43:18;;;;;;;;;2.00;2.00;;;;;;;;4947981;28;45441;-80
2023/05/24 11:45:44;;;;;;;;;3.50;2.00;;;;;;;;4954305;28;45821;-80
2023/05/24 11:48:10;;;;;;;;;1.67;1.67;;;;;;;;4954043;28;45726;-81
2023/05/24 11:50:36;;;;;;;;;3.00;1.00;;;;;;;;4952872;28;46107;-81
2023/05/24 11:53:02;;;;;;;;;3.33;3.33;;;;;;;;4952686;28;45874;-82
2023/05/24 11:55:27;;;;;;;;;3.00;2.00;;;;;;;;4954756;28;45425;-81
2023/05/24 11:57:56;;;;;;;;;2.00;2.00;;;;;;;;4968439;28;45382;-82
2023/05/24 12:00:25;;;;;;;;;3.33;2.33;;;;;;;;4946142;28;45481;-81
2023/05/24 12:02:51;;;;;;;;;1.00;1.00;;;;;;;;4961144;28;45481;-80
2023/05/24 12:05:17;;;;;;;;;1.00;1.00;;;;;;;;4954231;28;45485;-81
2023/05/24 12:07:47;;;;;;;;;2.33;2.33;;;;;;;;4951985;28;45877;-81
2023/05/24 12:10:12;;;;;;;;;5.33;4.00;;;;;;;;4949474;28;48418;-80
2023/05/24 12:12:41;;;;;;;;;1.00;1.00;;;;;;;;4951156;28;46406;-78
2023/05/24 12:15:07;;;;;;;;;4.67;3.33;;;;;;;;4946793;28;45726;-79
2023/05/24 12:17:32;;;;;;;;;2.33;2.00;;;;;;;;4954142;28;45730;-78
2023/05/24 12:19:57;;;;;;;;;4.00;3.00;;;;;;;;4947267;28;46497;-80
2023/05/24 12:22:26;;;;;;;;;4.00;1.33;;;;;;;;4957379;28;45714;-81
2023/05/24 12:24:51;;;;;;;;;1.00;1.00;;;;;;;;4951334;28;45746;-80
2023/05/24 12:27:17;;;;;;;;;1.67;1.67;;;;;;;;4954090;28;45496;-77
2023/05/24 12:29:42;;;;;;;;;4.67;3.33;;;;;;;;4944875;28;46027;-79
2023/05/24 12:32:11;;;;;;;;;1.00;1.00;;;;;;;;4955145;28;45557;-79
2023/05/24 12:34:36;;;;;;;;;4.00;3.00;;;;;;;;4953994;28;45817;-80
2023/05/24 12:37:02;;;;;;;;;4.00;2.67;;;;;;;;4965762;28;45374;-79
2023/05/24 12:39:33;;;;;;;;;1.00;1.00;;;;;;;;4953649;28;46088;-79
2023/05/24 12:42:02;;;;;;;;;2.00;2.00;;;;;;;;4951876;28;45383;-82
2023/05/24 12:44:27;;;;;;;;;2.00;2.00;;;;;;;;4952631;28;45548;-78
2023/05/24 12:46:53;;;;;;;;;2.00;2.00;;;;;;;;4961009;28;45416;-82
2023/05/24 12:49:18;;;;;;;;;4.00;3.00;;;;;;;;4969466;28;45752;-80
2023/05/24 12:51:43;;;;;;;;;3.00;3.00;;;;;;;;4952881;28;45318;-80
2023/05/24 12:54:09;;;;;;;;;3.33;2.00;;;;;;;;4950732;28;45750;-79
2023/05/24 12:56:34;;;;;;;;;4.00;4.00;;;;;;;;4955653;28;45805;-81
2023/05/24 12:59:00;;;;;;;;;4.33;2.33;;;;;;;;4954208;28;46040;-82
2023/05/24 13:01:25;;;;;;;;;3.33;3.33;;;;;;;;4953531;28;45713;-78
2023/05/24 13:03:51;;;;;;;;;4.00;3.67;;;;;;;;4963709;28;45798;-80
2023/05/24 13:06:16;;;;;;;;;4.33;3.00;;;;;;;;4957190;28;45736;-80
2023/05/24 13:08:41;;;;;;;;;4.33;3.33;;;;;;;;4946183;28;46147;-80
2023/05/24 13:11:06;;;;;;;;;3.33;2.33;;;;;;;;4958606;28;45445;-79
2023/05/24 13:13:32;;;;;;;;;6.00;5.00;;;;;;;;4958643;28;45700;-80
2023/05/24 13:15:57;;;;;;;;;2.25;2.00;;;;;;;;4966200;28;45613;-80
2023/05/24 13:18:24;;;;;;;;;5.00;2.67;;;;;;;;4952668;28;46802;-79
2023/05/24 13:20:50;;;;;;;;;3.00;3.00;;;;;;;;4953595;28;45767;-79
2023/05/24 13:23:16;;;;;;;;;3.67;3.67;;;;;;;;4953393;28;45790;-80
2023/05/24 13:25:41;;;;;;;;;3.00;3.00;;;;;;;;4955306;28;45365;-78
2023/05/24 13:28:07;;;;;;;;;4.00;3.33;;;;;;;;4951198;28;46255;-79
2023/05/24 13:30:32;;;;;;;;;6.00;3.00;;;;;;;;4946901;28;45466;-79
2023/05/24 13:32:58;;;;;;;;;2.00;2.00;;;;;;;;4952379;28;45393;-80
2023/05/24 13:35:23;;;;;;;;;1.33;0.67;;;;;;;;4952834;28;45386;-79
2023/05/24 13:37:49;;;;;;;;;3.00;3.00;;;;;;;;4956134;28;45528;-80
2023/05/24 13:40:15;;;;;;;;;4.33;3.33;;;;;;;;4951477;28;45868;-78
2023/05/24 13:42:40;;;;;;;;;6.33;4.33;;;;;;;;4952243;28;45482;-78
2023/05/24 13:45:06;;;;;;;;;2.67;2.67;;;;;;;;4951656;28;45611;-79
2023/05/24 13:47:31;;;;;;;;;2.00;2.00;;;;;;;;4952037;28;45825;-79
2023/05/24 13:49:57;;;;;;;;;2.00;2.00;;;;;;;;4960483;28;45759;-80
2023/05/24 13:52:22;;;;;;;;;3.00;1.33;;;;;;;;4955244;28;46024;-80
2023/05/24 13:54:47;;;;;;;;;3.67;2.00;;;;;;;;4954814;28;45444;-81
2023/05/24 13:57:13;;;;;;;;;2.75;1.75;;;;;;;;4954173;28;45972;-81
2023/05/24 13:59:38;;;;;;;;;3.67;3.67;;;;;;;;4946006;28;45425;-78
2023/05/24 14:02:04;;;;;;;;;4.33;3.67;;;;;;;;4944175;28;45624;-79
2023/05/24 14:04:29;;;;;;;;;2.00;2.00;;;;;;;;4953063;28;46162;-81
2023/05/24 14:06:55;;;;;;;;;2.33;2.33;;;;;;;;4948463;28;45499;-79
2023/05/24 14:09:20;;;;;;;;;4.33;3.00;;;;;;;;4949981;28;45768;-80
2023/05/24 14:11:45;;;;;;;;;4.67;4.00;;;;;;;;4948829;28;46070;-82
2023/05/24 14:14:11;;;;;;;;;2.75;1.75;;;;;;;;4955018;28;45838;-82
2023/05/24 14:16:36;;;;;;;;;5.00;3.67;;;;;;;;4947047;28;46419;-79
2023/05/24 14:19:01;;;;;;;;;2.00;2.00;;;;;;;;4945908;28;45656;-79
2023/05/24 14:21:26;;;;;;;;;4.00;3.00;;;;;;;;4942709;28;45867;-82
2023/05/24 14:23:52;;;;;;;;;4.67;3.33;;;;;;;;4957426;28;45444;-76
2023/05/24 14:26:18;;;;;;;;;4.67;4.00;;;;;;;;4951863;28;46885;-79
2023/05/24 14:28:45;;;;;;;;;3.00;3.00;;;;;;;;4946384;28;45893;-85
2023/05/24 14:31:11;;;;;;;;;5.00;3.00;;;;;;;;4959430;28;45493;-78
2023/05/24 14:33:39;;;;;;;;;5.00;4.00;;;;;;;;4953282;28;47235;-80
2023/05/24 14:36:05;;;;;;;;;3.67;3.67;;;;;;;;4960901;28;47919;-77
2023/05/24 14:38:30;;;;;;;;;5.33;2.33;;;;;;;;4942766;28;45314;-81